Stumpy Point, North Carolina
Current Conditions -  °F | °C
As of 4:56 AM on Sunday 21 Dec 2014 (Local Time) from K2DP Reporting Station
Clear Clear  
Wind Chill: 22°   Ceiling: Unl
Heat Index: 29°   Visibility: 10mi
Dew Point: 29°   Wind: 7mph
Humidity: 99%   Direction: 360°N
Pressure: 30.27"   Gusts: NA
Location:  35.7°N, 75.74°W
Report Text: K2DP 210956Z AUTO 36006KT 10SM CLR M02/M02 A3027 RMK AO2 SLPNO T10171019
Loading
Personal Weather Stations






























Interactive Weather Map New forecast layout! Learn more

10-Day Weather Forecast

Advertisements
Track Severe Weather on mobile